KAPG/APG METAR and TAF weather

Enter ICAO airport designator
Station Type Date Time Source
KAPG METAR 2018/10/19 23:51 UTC NOAA

KAPG 192351Z 19008KT 10SM BKN120 13/08 A3005 RMK SLP179 57019


Station Type Date Time Source
KAPG Decoded METAR 2018/10/19 23:51 UTC NOAA

Phillips Army Air Field / Aberdeen, MD, United States (KAPG) 39-28N 076-10W
Oct 19, 2018 - 07:51 PM EDT / 2018.10.19 2351 UTC
Wind: from the S (190 degrees) at 9 MPH (8 KT):0
Visibility: 10 mile(s):0
Sky conditions: mostly cloudy
Temperature: 55 F (13 C)
Dew Point: 46 F (8 C)
Relative Humidity: 71%
Pressure (altimeter): 30.05 in. Hg (1017 hPa)
Pressure tendency: 0.06 inches (1.9 hPa) lower than three hours ago
ob: KAPG 192351Z 19008KT 10SM BKN120 13/08 A3005 RMK SLP179 57019
cycle: 0

Station Type Date Time Source
KAPG TAF UTC NOAA

Error!


Example: see airport list